Skardu Weather



Skardu's Current Weather

Temprature -10.44o overcast clouds

overcast clouds

Rain: 0 %

Min Temprature-10.44o
Max Temprature-10.44o
Humidity64
Wind Speed1.12 m/h
Sun Rise06:56:29
Sun Set16:45:35
Current Time: 12-Dec-2019 01:26:59
Lat/Lon: 35.29, 75.63




Skardu's Geo Location



Skardu's Weather Forecast

Time Overall Temp Min Temp Max Temp Humidity Wind Speed Rain
12-Dec-2019 (Thu)
02:00:00 overcast clouds -10.440 -10.440 -10.440 64 1.12 m/h 0 %
05:00:00 overcast clouds -10.880 -10.880 -10.880 66 1.61 m/h 0 %
08:00:00 overcast clouds -9.880 -9.880 -9.880 70 1.07 m/h 0 %
11:00:00 light snow -8.770 -8.770 -8.770 74 0.51 m/h 0 %
14:00:00 overcast clouds -7.480 -7.480 -7.480 70 0.29 m/h 0 %
17:00:00 overcast clouds -8.950 -8.950 -8.950 77 1.03 m/h 0 %
20:00:00 light snow -8.600 -8.600 -8.600 82 0.95 m/h 0 %
23:00:00 light snow -8.970 -8.970 -8.970 89 0.79 m/h 0 %
13-Dec-2019 (Fri)
02:00:00 light snow -9.450 -9.450 -9.450 94 0.47 m/h 0 %
05:00:00 light snow -9.400 -9.400 -9.400 94 0.42 m/h 0 %
08:00:00 light snow -9.150 -9.150 -9.150 90 0.47 m/h 0 %
11:00:00 light snow -8.270 -8.270 -8.270 82 1.18 m/h 0 %
14:00:00 light snow -6.920 -6.920 -6.920 73 0.57 m/h 0 %
17:00:00 light snow -8.070 -8.070 -8.070 82 1.03 m/h 0 %
20:00:00 light snow -8.820 -8.820 -8.820 85 1.06 m/h 0 %
23:00:00 light snow -9.720 -9.720 -9.720 83 1.05 m/h 0 %
14-Dec-2019 (Sat)
02:00:00 light snow -10.170 -10.170 -10.170 78 1.43 m/h 0 %
05:00:00 light snow -10.620 -10.620 -10.620 82 0.64 m/h 0 %
08:00:00 light snow -9.730 -9.730 -9.730 80 0.72 m/h 0 %
11:00:00 light snow -7.800 -7.800 -7.800 69 0.97 m/h 0 %
14:00:00 overcast clouds -5.980 -5.980 -5.980 57 1.66 m/h 0 %
17:00:00 overcast clouds -8.860 -8.860 -8.860 65 0.35 m/h 0 %
20:00:00 overcast clouds -11.200 -11.200 -11.200 61 1.01 m/h 0 %
23:00:00 overcast clouds -12.060 -12.060 -12.060 62 1.17 m/h 0 %
15-Dec-2019 (Sun)
02:00:00 overcast clouds -12.620 -12.620 -12.620 71 1.39 m/h 0 %
05:00:00 overcast clouds -13.230 -13.230 -13.230 83 1.22 m/h 0 %
08:00:00 light snow -12.840 -12.840 -12.840 85 0.67 m/h 0 %
11:00:00 light snow -11.340 -11.340 -11.340 77 1.02 m/h 0 %
14:00:00 broken clouds -9.700 -9.700 -9.700 68 1.1 m/h 0 %
17:00:00 broken clouds -13.240 -13.240 -13.240 73 1.11 m/h 0 %
20:00:00 scattered clouds -14.960 -14.960 -14.960 66 1.56 m/h 0 %
23:00:00 scattered clouds -15.960 -15.960 -15.960 68 1.68 m/h 0 %
16-Dec-2019 (Mon)
02:00:00 broken clouds -16.540 -16.540 -16.540 73 1.55 m/h 0 %
05:00:00 broken clouds -17.350 -17.350 -17.350 79 1.18 m/h 0 %
08:00:00 broken clouds -17.020 -17.020 -17.020 77 0.12 m/h 0 %
11:00:00 scattered clouds -14.560 -14.560 -14.560 67 1.22 m/h 0 %
14:00:00 clear sky -13.150 -13.150 -13.150 61 0.51 m/h 0 %
17:00:00 clear sky -16.190 -16.190 -16.190 71 0.87 m/h 0 %
20:00:00 clear sky -18.190 -18.190 -18.190 65 1.58 m/h 0 %
23:00:00 clear sky -19.690 -19.690 -19.690 57 1.68 m/h 0 %

Famous Cities (61)